Time;durP1;ratioP1;P1;durP2;ratioP2;P2;SDS_P1;SDS_P2;PMS_P1;PMS_P2;Temp;Humidity;BMP_temperature;BMP_pressure;BME280_temperature;BME280_humidity;BME280_pressure;Samples;Min_cycle;Max_cycle;Signal;HPM_P1;HPM_P2
2021/11/06 00:02:21;;;;;;;5.95;3.15;;;;;;;;;;4998503;28;20097;-90
2021/11/06 00:04:47;;;;;;;11.20;3.45;;;;;;;;;;4995194;28;20018;-90
2021/11/06 00:07:13;;;;;;;10.40;3.75;;;;;;;;;;4978384;28;20058;-90
2021/11/06 00:09:39;;;;;;;6.78;3.25;;;;;;;;;;4979979;28;20030;-90
2021/11/06 00:12:05;;;;;;;7.13;3.35;;;;;;;;;;4989988;28;20030;-90
2021/11/06 00:14:31;;;;;;;12.80;3.55;;;;;;;;;;4980146;28;20073;-90
2021/11/06 00:16:57;;;;;;;14.02;3.88;;;;;;;;;;5001265;28;20031;-89
2021/11/06 00:19:23;;;;;;;9.10;3.42;;;;;;;;;;5017149;28;20058;-89
2021/11/06 00:21:48;;;;;;;11.15;3.22;;;;;;;;;;4984461;28;20023;-90
2021/11/06 00:24:14;;;;;;;8.68;3.50;;;;;;;;;;4978951;28;20023;-90
2021/11/06 00:26:39;;;;;;;9.93;3.70;;;;;;;;;;4978370;28;20039;-90
2021/11/06 00:29:05;;;;;;;9.43;3.55;;;;;;;;;;4978410;28;20474;-90
2021/11/06 00:31:30;;;;;;;9.45;3.50;;;;;;;;;;4978008;28;20031;-90
2021/11/06 00:33:56;;;;;;;14.77;4.72;;;;;;;;;;4979362;28;20030;-90
2021/11/06 00:36:24;;;;;;;5.65;4.05;;;;;;;;;;4979565;28;20038;-90
2021/11/06 00:38:49;;;;;;;13.55;5.22;;;;;;;;;;4977712;28;20019;-90
2021/11/06 00:41:16;;;;;;;9.85;4.53;;;;;;;;;;4977829;28;20073;-90
2021/11/06 00:43:41;;;;;;;13.52;5.40;;;;;;;;;;4977675;28;20031;-90
2021/11/06 00:46:07;;;;;;;12.35;5.07;;;;;;;;;;4986601;28;20034;-90
2021/11/06 00:48:32;;;;;;;10.48;5.70;;;;;;;;;;4996661;28;20457;-90
2021/11/06 00:50:58;;;;;;;9.93;6.20;;;;;;;;;;4990019;28;20057;-90
2021/11/06 00:53:23;;;;;;;15.38;6.68;;;;;;;;;;4976585;28;20434;-90
2021/11/06 00:55:49;;;;;;;17.33;7.30;;;;;;;;;;4976306;28;20035;-90
2021/11/06 00:58:14;;;;;;;14.60;7.47;;;;;;;;;;4977879;28;20035;-90
2021/11/06 01:00:40;;;;;;;16.33;7.93;;;;;;;;;;5009624;28;20544;-90
2021/11/06 01:03:05;;;;;;;15.27;7.28;;;;;;;;;;4995489;28;20022;-90
2021/11/06 01:05:31;;;;;;;12.60;8.00;;;;;;;;;;4995510;28;20018;-90
2021/11/06 01:07:56;;;;;;;11.45;7.35;;;;;;;;;;4996517;28;20073;-90
2021/11/06 01:10:22;;;;;;;13.43;8.23;;;;;;;;;;4996578;28;20057;-90
2021/11/06 01:12:48;;;;;;;17.08;8.07;;;;;;;;;;4995973;28;20030;-90
2021/11/06 01:15:14;;;;;;;13.30;8.07;;;;;;;;;;4995750;28;20027;-90
2021/11/06 01:17:41;;;;;;;15.13;8.13;;;;;;;;;;4996015;28;20030;-90
2021/11/06 01:20:07;;;;;;;17.42;8.18;;;;;;;;;;4995531;28;20027;-90
2021/11/06 01:22:33;;;;;;;13.00;7.70;;;;;;;;;;4995724;28;20026;-90
2021/11/06 01:24:58;;;;;;;13.07;7.60;;;;;;;;;;4996054;28;20493;-90
2021/11/06 01:27:23;;;;;;;17.13;8.48;;;;;;;;;;4983664;28;20034;-90
2021/11/06 01:29:49;;;;;;;14.27;7.35;;;;;;;;;;4976099;28;20027;-90
2021/11/06 01:32:14;;;;;;;11.13;7.20;;;;;;;;;;4975540;28;20077;-90
2021/11/06 01:34:40;;;;;;;12.93;7.00;;;;;;;;;;4976105;28;20125;-90
2021/11/06 01:37:05;;;;;;;12.82;7.28;;;;;;;;;;4976244;28;20029;-89
2021/11/06 01:39:31;;;;;;;15.55;6.95;;;;;;;;;;4976669;28;20061;-90
2021/11/06 01:41:57;;;;;;;14.38;6.97;;;;;;;;;;4976088;28;20034;-90
2021/11/06 01:44:24;;;;;;;11.68;6.50;;;;;;;;;;4976063;28;20025;-90
2021/11/06 01:46:50;;;;;;;10.52;6.40;;;;;;;;;;4975959;28;20062;-90
2021/11/06 01:49:20;;;;;;;14.63;6.65;;;;;;;;;;4976584;28;20034;-90
2021/11/06 01:51:45;;;;;;;12.25;6.20;;;;;;;;;;4975942;28;20031;-90
2021/11/06 01:54:11;;;;;;;16.10;7.13;;;;;;;;;;4994457;28;20378;-91
2021/11/06 01:56:36;;;;;;;13.48;7.35;;;;;;;;;;4995140;28;20018;-90
2021/11/06 01:59:02;;;;;;;14.35;7.03;;;;;;;;;;4995601;28;20552;-90
2021/11/06 02:01:28;;;;;;;13.90;7.00;;;;;;;;;;4996067;28;20030;-90
2021/11/06 02:03:53;;;;;;;15.18;7.10;;;;;;;;;;4997026;28;20044;-90
2021/11/06 02:06:19;;;;;;;19.70;8.18;;;;;;;;;;4988413;28;20089;-90
2021/11/06 02:08:44;;;;;;;14.77;8.02;;;;;;;;;;4977252;28;20034;-90
2021/11/06 02:11:10;;;;;;;20.65;8.30;;;;;;;;;;4976658;28;20440;-90
2021/11/06 02:13:35;;;;;;;16.10;8.18;;;;;;;;;;4981598;28;20054;-89
2021/11/06 02:16:01;;;;;;;13.88;8.57;;;;;;;;;;4976557;28;20027;-90
2021/11/06 02:18:26;;;;;;;11.45;8.27;;;;;;;;;;4975621;28;20098;-90
2021/11/06 02:21:04;;;;;;;14.95;8.85;;;;;;;;;;4975671;28;20557;-89
2021/11/06 02:23:42;;;;;;;13.88;9.05;;;;;;;;;;4993461;28;20030;-89
2021/11/06 02:26:10;;;;;;;20.70;9.60;;;;;;;;;;4995689;28;20022;-89
2021/11/06 02:28:35;;;;;;;18.13;9.50;;;;;;;;;;4994799;28;20034;-89
2021/11/06 02:31:01;;;;;;;15.23;9.60;;;;;;;;;;4994572;28;20636;-89
2021/11/06 02:33:26;;;;;;;16.95;8.85;;;;;;;;;;4994159;28;20022;-89
2021/11/06 02:35:52;;;;;;;21.73;10.27;;;;;;;;;;4994537;28;20034;-90
2021/11/06 02:38:17;;;;;;;20.98;10.90;;;;;;;;;;5011150;28;20285;-89
2021/11/06 02:40:43;;;;;;;17.15;10.48;;;;;;;;;;4994809;28;20482;-89
2021/11/06 02:43:09;;;;;;;18.85;10.10;;;;;;;;;;4995487;28;20030;-90
2021/11/06 02:45:36;;;;;;;16.83;10.07;;;;;;;;;;4997837;28;20021;-90
2021/11/06 02:48:01;;;;;;;23.17;11.80;;;;;;;;;;4987687;28;20486;-90
2021/11/06 02:50:27;;;;;;;21.98;10.52;;;;;;;;;;4993985;28;20035;-87
2021/11/06 02:52:53;;;;;;;19.27;10.90;;;;;;;;;;4998866;28;20029;-88
2021/11/06 02:55:18;;;;;;;18.85;11.85;;;;;;;;;;4991596;28;20070;-90
2021/11/06 02:57:44;;;;;;;21.90;12.38;;;;;;;;;;4977170;28;20081;-90
2021/11/06 03:00:10;;;;;;;15.80;11.98;;;;;;;;;;4976522;28;20061;-89
2021/11/06 03:02:36;;;;;;;23.98;12.65;;;;;;;;;;4995673;28;20095;-89
2021/11/06 03:05:06;;;;;;;21.25;13.00;;;;;;;;;;5012621;28;20046;-89
2021/11/06 03:07:32;;;;;;;21.10;12.50;;;;;;;;;;4985778;28;20122;-89
2021/11/06 03:09:57;;;;;;;22.70;13.05;;;;;;;;;;4991356;28;20118;-88
2021/11/06 03:12:24;;;;;;;23.27;13.23;;;;;;;;;;4974976;28;20509;-88
2021/11/06 03:14:49;;;;;;;25.33;13.68;;;;;;;;;;4976104;28;20120;-88
2021/11/06 03:17:14;;;;;;;22.70;12.55;;;;;;;;;;4978212;28;20019;-89
2021/11/06 03:19:40;;;;;;;21.23;13.93;;;;;;;;;;4978824;28;20069;-89
2021/11/06 03:22:06;;;;;;;24.05;13.93;;;;;;;;;;4978540;28;20030;-89
2021/11/06 03:24:31;;;;;;;20.80;13.93;;;;;;;;;;4979126;28;20019;-89
2021/11/06 03:26:57;;;;;;;24.60;13.90;;;;;;;;;;4978897;28;20175;-89
2021/11/06 03:29:22;;;;;;;24.17;15.10;;;;;;;;;;4979179;28;20022;-89
2021/11/06 03:31:48;;;;;;;28.60;15.05;;;;;;;;;;4978830;28;20030;-89
2021/11/06 03:34:13;;;;;;;28.10;15.40;;;;;;;;;;4987693;28;20102;-89
2021/11/06 03:36:39;;;;;;;31.35;17.25;;;;;;;;;;4991611;28;20026;-88
2021/11/06 03:39:04;;;;;;;27.20;15.45;;;;;;;;;;4978348;28;20057;-89
2021/11/06 03:41:31;;;;;;;21.40;14.90;;;;;;;;;;4978912;28;20066;-89
2021/11/06 03:43:57;;;;;;;31.15;14.73;;;;;;;;;;4978047;28;20042;-89
2021/11/06 03:46:22;;;;;;;20.98;14.45;;;;;;;;;;4977757;28;20027;-89
2021/11/06 03:48:47;;;;;;;34.72;16.25;;;;;;;;;;4979017;28;20030;-89
2021/11/06 03:51:13;;;;;;;29.02;15.98;;;;;;;;;;4977965;28;20117;-89
2021/11/06 03:53:38;;;;;;;29.48;16.15;;;;;;;;;;4994254;28;20034;-89
2021/11/06 03:56:04;;;;;;;30.92;16.48;;;;;;;;;;5013487;28;20580;-89
2021/11/06 03:58:29;;;;;;;27.05;16.05;;;;;;;;;;4998453;28;20393;-89
2021/11/06 04:00:55;;;;;;;26.05;15.75;;;;;;;;;;4998860;28;20409;-89
2021/11/06 04:03:20;;;;;;;29.33;17.35;;;;;;;;;;5016086;28;20061;-89
2021/11/06 04:05:46;;;;;;;33.03;16.25;;;;;;;;;;5010447;28;20027;-88
2021/11/06 04:08:11;;;;;;;28.77;15.85;;;;;;;;;;4977309;28;20034;-89
2021/11/06 04:10:37;;;;;;;36.55;16.27;;;;;;;;;;4977728;28;20027;-89
2021/11/06 04:13:02;;;;;;;36.15;16.63;;;;;;;;;;4978124;28;20019;-89
2021/11/06 04:15:28;;;;;;;34.20;16.30;;;;;;;;;;4978892;28;20027;-88
2021/11/06 04:17:53;;;;;;;32.90;15.88;;;;;;;;;;4982987;28;20467;-89
2021/11/06 04:20:19;;;;;;;34.38;16.67;;;;;;;;;;4988264;28;20044;-89
2021/11/06 04:22:44;;;;;;;35.33;18.00;;;;;;;;;;4997896;28;20058;-89
2021/11/06 04:25:11;;;;;;;32.42;16.58;;;;;;;;;;4998100;28;20088;-89
2021/11/06 04:27:36;;;;;;;34.35;15.77;;;;;;;;;;4997099;28;20033;-89
2021/11/06 04:30:04;;;;;;;37.88;16.98;;;;;;;;;;4996885;28;20030;-89
2021/11/06 04:32:29;;;;;;;36.78;17.33;;;;;;;;;;4999041;28;20026;-89
2021/11/06 04:34:54;;;;;;;38.95;16.77;;;;;;;;;;4979742;28;20121;-89
2021/11/06 04:37:20;;;;;;;36.22;17.55;;;;;;;;;;4976519;28;20054;-89
2021/11/06 04:39:45;;;;;;;47.75;18.20;;;;;;;;;;4977061;28;20019;-88
2021/11/06 04:42:11;;;;;;;37.03;17.15;;;;;;;;;;4978498;28;20059;-89
2021/11/06 04:44:36;;;;;;;41.22;17.63;;;;;;;;;;4977247;28;20031;-89
2021/11/06 04:47:01;;;;;;;37.90;17.48;;;;;;;;;;4977030;28;20397;-89
2021/11/06 04:49:27;;;;;;;38.70;16.92;;;;;;;;;;4977940;28;20094;-89
2021/11/06 04:51:52;;;;;;;38.15;17.23;;;;;;;;;;4977621;28;20034;-88
2021/11/06 04:54:18;;;;;;;37.00;17.27;;;;;;;;;;4976004;28;20043;-89
2021/11/06 04:56:43;;;;;;;37.58;16.58;;;;;;;;;;4979459;28;20070;-89
2021/11/06 04:59:10;;;;;;;43.60;17.83;;;;;;;;;;4978745;28;20556;-88
2021/11/06 05:01:35;;;;;;;39.58;19.45;;;;;;;;;;4988919;28;20030;-88
2021/11/06 05:04:00;;;;;;;41.83;17.63;;;;;;;;;;4999672;28;20053;-89
2021/11/06 05:06:27;;;;;;;37.58;17.40;;;;;;;;;;4995901;28;20524;-88
2021/11/06 05:08:53;;;;;;;32.00;16.25;;;;;;;;;;4995824;28;20449;-88
2021/11/06 05:11:18;;;;;;;31.35;16.27;;;;;;;;;;4995747;28;20030;-88
2021/11/06 05:13:43;;;;;;;41.40;17.92;;;;;;;;;;4996830;28;20050;-88
2021/11/06 05:16:09;;;;;;;32.65;16.33;;;;;;;;;;5012395;28;20081;-89
2021/11/06 05:18:34;;;;;;;37.13;16.95;;;;;;;;;;4996705;28;20025;-89
2021/11/06 05:21:00;;;;;;;35.45;16.60;;;;;;;;;;4996763;28;20092;-89
2021/11/06 05:23:25;;;;;;;35.83;16.95;;;;;;;;;;5004257;28;20010;-89
2021/11/06 05:25:50;;;;;;;39.25;15.43;;;;;;;;;;5019913;28;20023;-88
2021/11/06 05:28:16;;;;;;;32.85;16.02;;;;;;;;;;5011236;28;20035;-88
2021/11/06 05:30:42;;;;;;;33.03;16.48;;;;;;;;;;4982808;28;20019;-89
2021/11/06 05:33:09;;;;;;;40.63;16.23;;;;;;;;;;4978313;28;20441;-89
2021/11/06 05:35:35;;;;;;;34.85;16.20;;;;;;;;;;4975758;28;20022;-89
2021/11/06 05:38:00;;;;;;;36.05;16.15;;;;;;;;;;4976306;28;20045;-89
2021/11/06 05:40:26;;;;;;;35.00;15.50;;;;;;;;;;4978583;28;20023;-89
2021/11/06 05:42:51;;;;;;;34.88;16.90;;;;;;;;;;4988468;28;20481;-89
2021/11/06 05:45:17;;;;;;;41.03;17.23;;;;;;;;;;4995342;28;20026;-89
2021/11/06 05:47:43;;;;;;;31.67;16.60;;;;;;;;;;4995016;28;20030;-89
2021/11/06 05:50:11;;;;;;;38.88;15.93;;;;;;;;;;5011566;28;20030;-89
2021/11/06 05:52:36;;;;;;;33.53;16.65;;;;;;;;;;5011604;28;20026;-89
2021/11/06 05:55:04;;;;;;;32.45;15.95;;;;;;;;;;5011350;28;20030;-89
2021/11/06 05:57:29;;;;;;;35.55;15.75;;;;;;;;;;4995060;28;20418;-89
2021/11/06 05:59:55;;;;;;;30.58;16.73;;;;;;;;;;4994697;28;20026;-89
2021/11/06 06:02:20;;;;;;;34.13;15.63;;;;;;;;;;4996258;28;20025;-89
2021/11/06 06:04:46;;;;;;;33.67;15.70;;;;;;;;;;4994910;28;20018;-89
2021/11/06 06:07:11;;;;;;;27.08;15.20;;;;;;;;;;5008508;28;20026;-89
2021/11/06 06:09:37;;;;;;;29.98;16.08;;;;;;;;;;4976191;28;20027;-88
2021/11/06 06:12:02;;;;;;;31.83;16.00;;;;;;;;;;4976471;28;20026;-89
2021/11/06 06:14:28;;;;;;;32.58;15.88;;;;;;;;;;4993043;28;20030;-88
2021/11/06 06:16:53;;;;;;;27.85;15.27;;;;;;;;;;4976740;28;20113;-88
2021/11/06 06:19:19;;;;;;;35.45;16.05;;;;;;;;;;4976620;28;20039;-89
2021/11/06 06:21:44;;;;;;;31.48;16.90;;;;;;;;;;4979502;28;20034;-88
2021/11/06 06:24:10;;;;;;;29.88;15.98;;;;;;;;;;4975720;28;20383;-88
2021/11/06 06:26:35;;;;;;;28.85;14.93;;;;;;;;;;4975112;28;20508;-89
2021/11/06 06:29:00;;;;;;;28.02;15.00;;;;;;;;;;4976465;28;20062;-88
2021/11/06 06:31:27;;;;;;;34.30;14.27;;;;;;;;;;4988955;28;20398;-88
2021/11/06 06:33:53;;;;;;;33.22;16.52;;;;;;;;;;4995952;28;20394;-88
2021/11/06 06:36:18;;;;;;;34.65;15.77;;;;;;;;;;4995022;28;20030;-89
2021/11/06 06:38:43;;;;;;;36.80;16.60;;;;;;;;;;4996713;28;20113;-88
2021/11/06 06:41:09;;;;;;;34.15;16.65;;;;;;;;;;4996311;28;20030;-88
2021/11/06 06:43:34;;;;;;;49.70;17.48;;;;;;;;;;5002483;28;20030;-89
2021/11/06 06:46:00;;;;;;;36.17;18.23;;;;;;;;;;4994189;28;20030;-88
2021/11/06 06:48:25;;;;;;;32.03;16.30;;;;;;;;;;4977050;28;20081;-88
2021/11/06 06:50:51;;;;;;;38.20;18.13;;;;;;;;;;4975639;28;20386;-88
2021/11/06 06:53:17;;;;;;;28.63;16.73;;;;;;;;;;4979219;28;20113;-88
2021/11/06 06:55:43;;;;;;;35.38;16.95;;;;;;;;;;4995294;28;20042;-88
2021/11/06 06:58:09;;;;;;;34.65;15.93;;;;;;;;;;4979677;28;20034;-88
2021/11/06 07:00:36;;;;;;;30.80;16.15;;;;;;;;;;4980377;28;20030;-88
2021/11/06 07:03:01;;;;;;;44.72;18.35;;;;;;;;;;4985790;28;20037;-88
2021/11/06 07:05:26;;;;;;;31.30;16.85;;;;;;;;;;5016198;28;20046;-88
2021/11/06 07:07:53;;;;;;;39.40;18.52;;;;;;;;;;4999097;28;20030;-88
2021/11/06 07:10:18;;;;;;;35.72;17.08;;;;;;;;;;4999534;28;20057;-88
2021/11/06 07:12:45;;;;;;;30.52;16.55;;;;;;;;;;5015589;28;20031;-89
2021/11/06 07:15:10;;;;;;;32.83;16.52;;;;;;;;;;5002070;28;20019;-90
2021/11/06 07:17:36;;;;;;;37.65;17.88;;;;;;;;;;5007985;28;20031;-88
2021/11/06 07:20:03;;;;;;;31.52;16.25;;;;;;;;;;4980144;28;20027;-87
2021/11/06 07:22:28;;;;;;;41.95;17.95;;;;;;;;;;4980204;28;20125;-88
2021/11/06 07:24:54;;;;;;;36.72;16.33;;;;;;;;;;4979305;28;20018;-88
2021/11/06 07:27:19;;;;;;;37.88;17.80;;;;;;;;;;4979408;28;20446;-88
2021/11/06 07:29:45;;;;;;;59.80;18.17;;;;;;;;;;4982510;28;20026;-88
2021/11/06 07:32:10;;;;;;;34.15;17.33;;;;;;;;;;4996937;28;20081;-87
2021/11/06 07:34:36;;;;;;;34.85;16.20;;;;;;;;;;5006548;28;20033;-89
2021/11/06 07:37:01;;;;;;;35.80;17.63;;;;;;;;;;5005662;28;20037;-88
2021/11/06 07:39:27;;;;;;;36.85;16.95;;;;;;;;;;4999671;28;20042;-88
2021/11/06 07:41:53;;;;;;;34.83;16.88;;;;;;;;;;5014650;28;20026;-88
2021/11/06 07:44:20;;;;;;;30.80;15.55;;;;;;;;;;4998678;28;20533;-88
2021/11/06 07:46:45;;;;;;;33.30;16.92;;;;;;;;;;4998395;28;20486;-88
2021/11/06 07:49:10;;;;;;;35.53;16.15;;;;;;;;;;5014310;28;20026;-89
2021/11/06 07:51:36;;;;;;;32.38;16.90;;;;;;;;;;4979092;28;20078;-89
2021/11/06 07:54:02;;;;;;;33.65;14.80;;;;;;;;;;4980111;28;20043;-88
2021/11/06 07:56:27;;;;;;;32.78;15.60;;;;;;;;;;4985027;28;20031;-88
2021/11/06 07:58:53;;;;;;;30.08;15.27;;;;;;;;;;4994015;28;20049;-88
2021/11/06 08:01:20;;;;;;;31.45;16.20;;;;;;;;;;5001794;28;20035;-86
2021/11/06 08:03:45;;;;;;;28.75;16.25;;;;;;;;;;4994841;28;20026;-89
2021/11/06 08:06:11;;;;;;;29.92;15.55;;;;;;;;;;4981765;28;20030;-88
2021/11/06 08:08:36;;;;;;;26.83;14.77;;;;;;;;;;4978276;28;20113;-88
2021/11/06 08:11:01;;;;;;;29.73;16.35;;;;;;;;;;4983815;28;20027;-89
2021/11/06 08:13:29;;;;;;;31.00;16.13;;;;;;;;;;4979524;28;20081;-89
2021/11/06 08:15:55;;;;;;;27.13;14.88;;;;;;;;;;4978326;28;20022;-87
2021/11/06 08:18:20;;;;;;;29.45;15.23;;;;;;;;;;4977620;28;20030;-89
2021/11/06 08:20:46;;;;;;;32.40;16.15;;;;;;;;;;4979992;28;20033;-88
2021/11/06 08:23:12;;;;;;;31.05;16.10;;;;;;;;;;4994524;28;20065;-88
2021/11/06 08:25:38;;;;;;;28.15;14.73;;;;;;;;;;5000560;28;20074;-88
2021/11/06 08:28:03;;;;;;;30.17;15.25;;;;;;;;;;5013677;28;20026;-88
2021/11/06 08:30:29;;;;;;;32.65;15.38;;;;;;;;;;4999604;28;20030;-88
2021/11/06 08:32:56;;;;;;;28.67;15.23;;;;;;;;;;5013869;28;20026;-88
2021/11/06 08:35:22;;;;;;;27.08;14.20;;;;;;;;;;4997357;28;20026;-88
2021/11/06 08:37:48;;;;;;;26.77;14.40;;;;;;;;;;5011616;28;20033;-88
2021/11/06 08:40:13;;;;;;;25.33;13.63;;;;;;;;;;5013773;28;20057;-89
2021/11/06 08:42:39;;;;;;;27.92;15.50;;;;;;;;;;4997892;28;20058;-88
2021/11/06 08:45:06;;;;;;;33.90;15.20;;;;;;;;;;5012949;28;20018;-88
2021/11/06 08:47:33;;;;;;;23.52;13.52;;;;;;;;;;4997152;28;20027;-88
2021/11/06 08:49:59;;;;;;;22.88;12.20;;;;;;;;;;5009422;28;20027;-88
2021/11/06 08:52:24;;;;;;;22.25;13.60;;;;;;;;;;4977734;28;20510;-88
2021/11/06 08:54:50;;;;;;;24.98;13.38;;;;;;;;;;4983654;28;20497;-87
2021/11/06 08:57:19;;;;;;;31.10;13.80;;;;;;;;;;4959484;28;20027;-88
2021/11/06 08:59:48;;;;;;;29.00;13.55;;;;;;;;;;4959382;28;20394;-88
2021/11/06 09:02:14;;;;;;;24.85;14.32;;;;;;;;;;4974218;28;20024;-88
2021/11/06 09:04:39;;;;;;;26.88;13.82;;;;;;;;;;4975802;28;20033;-88
2021/11/06 09:07:05;;;;;;;26.92;13.32;;;;;;;;;;4972134;28;20027;-88
2021/11/06 09:09:30;;;;;;;30.23;13.80;;;;;;;;;;4977561;28;20027;-88
2021/11/06 09:11:56;;;;;;;24.88;13.20;;;;;;;;;;4977896;28;20031;-88
2021/11/06 09:14:21;;;;;;;20.65;13.15;;;;;;;;;;4978649;28;20041;-88
2021/11/06 09:16:47;;;;;;;21.50;11.60;;;;;;;;;;4980910;28;20486;-89
2021/11/06 09:19:13;;;;;;;23.67;11.57;;;;;;;;;;4980610;28;20150;-88
2021/11/06 09:21:40;;;;;;;20.85;11.82;;;;;;;;;;4980161;28;20019;-89
2021/11/06 09:24:05;;;;;;;19.95;10.85;;;;;;;;;;4994520;28;20521;-89
2021/11/06 09:26:37;;;;;;;24.60;10.82;;;;;;;;;;4980029;28;20035;-88
2021/11/06 09:29:04;;;;;;;23.70;11.05;;;;;;;;;;4979227;28;20442;-89
2021/11/06 09:31:30;;;;;;;25.00;11.00;;;;;;;;;;4978290;28;20089;-88
2021/11/06 09:33:59;;;;;;;19.65;11.02;;;;;;;;;;4978147;28;20034;-89
2021/11/06 09:36:25;;;;;;;21.58;11.00;;;;;;;;;;4977594;28;20037;-89
2021/11/06 09:38:54;;;;;;;17.25;10.35;;;;;;;;;;4986474;28;20054;-88
2021/11/06 09:41:20;;;;;;;20.20;11.25;;;;;;;;;;4999834;28;20156;-89
2021/11/06 09:43:46;;;;;;;20.55;10.93;;;;;;;;;;4997346;28;20494;-89
2021/11/06 09:46:13;;;;;;;20.95;11.20;;;;;;;;;;4998074;28;20394;-89
2021/11/06 09:48:42;;;;;;;30.40;13.73;;;;;;;;;;4997788;28;20053;-89
2021/11/06 09:51:08;;;;;;;21.67;10.73;;;;;;;;;;4996254;28;20026;-88
2021/11/06 09:53:39;;;;;;;22.65;11.55;;;;;;;;;;4977725;28;20077;-88
2021/11/06 09:56:05;;;;;;;17.10;10.32;;;;;;;;;;4980354;28;20109;-88
2021/11/06 09:58:31;;;;;;;18.40;10.77;;;;;;;;;;4991040;28;20056;-88
2021/11/06 10:00:57;;;;;;;21.40;9.85;;;;;;;;;;5013352;28;20018;-88
2021/11/06 10:03:22;;;;;;;18.98;10.55;;;;;;;;;;4999282;28;20041;-88
2021/11/06 10:05:53;;;;;;;19.17;10.07;;;;;;;;;;4998436;28;20064;-88
2021/11/06 10:08:30;;;;;;;18.45;9.95;;;;;;;;;;4997867;28;20461;-88
2021/11/06 10:11:00;;;;;;;20.13;9.65;;;;;;;;;;4998639;28;20494;-88
2021/11/06 10:13:26;;;;;;;17.75;9.68;;;;;;;;;;4996922;28;20023;-89
2021/11/06 10:15:53;;;;;;;21.55;10.38;;;;;;;;;;4979726;28;20463;-88
2021/11/06 10:18:21;;;;;;;21.48;10.13;;;;;;;;;;4979537;28;20035;-89
2021/11/06 10:21:09;;;;;;;17.58;9.75;;;;;;;;;;4978269;28;20537;-88
2021/11/06 10:23:42;;;;;;;19.83;9.85;;;;;;;;;;4988887;28;20383;-89
2021/11/06 10:26:14;;;;;;;21.98;11.13;;;;;;;;;;5001078;28;20366;-88
2021/11/06 10:28:40;;;;;;;19.52;9.75;;;;;;;;;;5004216;28;20037;-88
2021/11/06 10:31:06;;;;;;;19.30;9.77;;;;;;;;;;5003777;28;20098;-89
2021/11/06 10:33:46;;;;;;;25.75;10.27;;;;;;;;;;5002551;28;20112;-89
2021/11/06 10:36:26;;;;;;;21.42;9.13;;;;;;;;;;5003200;28;20031;-88
2021/11/06 10:39:17;;;;;;;16.20;9.25;;;;;;;;;;5000591;28;20037;-88
2021/11/06 10:41:43;;;;;;;17.83;9.55;;;;;;;;;;4999807;28;20042;-88
2021/11/06 10:44:08;;;;;;;18.63;10.10;;;;;;;;;;5003262;28;20397;-88
2021/11/06 10:46:35;;;;;;;19.55;10.18;;;;;;;;;;5002826;28;20124;-88
2021/11/06 10:49:02;;;;;;;15.23;9.65;;;;;;;;;;5003364;28;20030;-88
2021/11/06 10:51:28;;;;;;;16.73;9.93;;;;;;;;;;5007563;28;20375;-88
2021/11/06 10:53:56;;;;;;;24.83;10.13;;;;;;;;;;5001685;28;20037;-89
2021/11/06 10:56:39;;;;;;;19.98;10.70;;;;;;;;;;4992360;28;20031;-89
2021/11/06 10:59:17;;;;;;;20.10;9.80;;;;;;;;;;4983449;28;20027;-88
2021/11/06 11:01:53;;;;;;;18.42;9.68;;;;;;;;;;4995969;28;20066;-88
2021/11/06 11:04:20;;;;;;;22.80;9.88;;;;;;;;;;5011337;28;20069;-89
2021/11/06 11:06:51;;;;;;;18.58;9.50;;;;;;;;;;5006046;28;20082;-89
2021/11/06 11:09:25;;;;;;;25.58;10.52;;;;;;;;;;5002647;28;20029;-89
2021/11/06 11:11:54;;;;;;;21.75;11.45;;;;;;;;;;4999798;28;20049;-88
2021/11/06 11:14:22;;;;;;;18.85;10.00;;;;;;;;;;5000796;28;20030;-88
2021/11/06 11:16:57;;;;;;;22.50;10.23;;;;;;;;;;4999025;28;20038;-88
2021/11/06 11:19:34;;;;;;;24.52;10.15;;;;;;;;;;5000370;28;20061;-88
2021/11/06 11:21:59;;;;;;;23.45;11.05;;;;;;;;;;5001200;28;20030;-88
2021/11/06 11:24:25;;;;;;;18.88;9.88;;;;;;;;;;5006646;28;20029;-88
2021/11/06 11:26:52;;;;;;;22.73;11.60;;;;;;;;;;5010809;28;20458;-88
2021/11/06 11:29:26;;;;;;;23.02;11.10;;;;;;;;;;4999772;28;20038;-87
2021/11/06 11:31:52;;;;;;;19.40;10.68;;;;;;;;;;4989291;28;20072;-88
2021/11/06 11:34:18;;;;;;;21.35;10.52;;;;;;;;;;4981909;28;20052;-89
2021/11/06 11:36:45;;;;;;;16.60;10.10;;;;;;;;;;4979149;28;20513;-88
2021/11/06 11:39:13;;;;;;;23.98;10.27;;;;;;;;;;4979360;28;20022;-87
2021/11/06 11:41:43;;;;;;;17.08;10.10;;;;;;;;;;4979524;28;20022;-88
2021/11/06 11:44:39;;;;;;;18.27;9.13;;;;;;;;;;4980430;28;20121;-87
2021/11/06 11:47:09;;;;;;;20.13;10.48;;;;;;;;;;4979584;28;20027;-88
2021/11/06 11:49:38;;;;;;;21.90;9.43;;;;;;;;;;4978655;28;20134;-87
2021/11/06 11:52:26;;;;;;;16.85;9.85;;;;;;;;;;4979511;28;20030;-88
2021/11/06 11:54:57;;;;;;;19.77;9.40;;;;;;;;;;4979057;28;20166;-88
2021/11/06 11:57:23;;;;;;;17.75;8.68;;;;;;;;;;4978887;28;20088;-87
2021/11/06 11:59:49;;;;;;;20.50;9.57;;;;;;;;;;4979973;28;20069;-87
2021/11/06 12:02:26;;;;;;;20.05;7.53;;;;;;;;;;4993293;28;20062;-88
2021/11/06 12:05:17;;;;;;;18.42;8.88;;;;;;;;;;4999504;28;20018;-88
2021/11/06 12:07:45;;;;;;;18.40;8.10;;;;;;;;;;4988502;28;20037;-88
2021/11/06 12:10:29;;;;;;;18.73;8.77;;;;;;;;;;4982121;28;20042;-87
2021/11/06 12:12:57;;;;;;;16.85;8.98;;;;;;;;;;4998036;28;20193;-88
2021/11/06 12:16:02;;;;;;;14.35;7.88;;;;;;;;;;4997834;28;20088;-88
2021/11/06 12:18:34;;;;;;;18.98;7.93;;;;;;;;;;4996884;28;20062;-88
2021/11/06 12:21:20;;;;;;;14.73;7.75;;;;;;;;;;4999041;28;20397;-88
2021/11/06 12:23:51;;;;;;;16.48;8.60;;;;;;;;;;5001881;28;20030;-88
2021/11/06 12:26:29;;;;;;;17.02;7.53;;;;;;;;;;4982405;28;20007;-88
2021/11/06 12:29:03;;;;;;;13.93;7.50;;;;;;;;;;4984253;28;20081;-87
2021/11/06 12:31:34;;;;;;;14.48;7.47;;;;;;;;;;4981447;28;20089;-88
2021/11/06 12:34:01;;;;;;;13.30;6.95;;;;;;;;;;4995505;28;20041;-88
2021/11/06 12:36:32;;;;;;;10.40;7.10;;;;;;;;;;5003901;28;20026;-88
2021/11/06 12:39:01;;;;;;;13.93;8.10;;;;;;;;;;5001659;28;20025;-88
2021/11/06 12:41:31;;;;;;;19.08;6.68;;;;;;;;;;4998706;28;20520;-88
2021/11/06 12:43:59;;;;;;;14.27;6.55;;;;;;;;;;4991199;28;20047;-89
2021/11/06 12:46:30;;;;;;;14.40;6.43;;;;;;;;;;4986313;28;20041;-89
2021/11/06 12:49:02;;;;;;;13.98;6.30;;;;;;;;;;4984568;28;20022;-89
2021/11/06 12:51:29;;;;;;;11.97;6.83;;;;;;;;;;4985705;28;20051;-87
2021/11/06 12:53:59;;;;;;;13.05;6.68;;;;;;;;;;4985349;28;20027;-88
2021/11/06 12:56:34;;;;;;;13.55;7.30;;;;;;;;;;4998353;28;20066;-89
2021/11/06 12:59:05;;;;;;;14.90;6.88;;;;;;;;;;4993982;28;20030;-90
2021/11/06 13:01:31;;;;;;;15.25;7.60;;;;;;;;;;5005827;28;20042;-89
2021/11/06 13:03:59;;;;;;;14.27;5.93;;;;;;;;;;5016945;28;20420;-89
2021/11/06 13:06:31;;;;;;;11.43;6.28;;;;;;;;;;4997693;28;20022;-90
2021/11/06 13:09:17;;;;;;;15.27;6.35;;;;;;;;;;5001626;28;20028;-89
2021/11/06 13:12:07;;;;;;;11.02;6.00;;;;;;;;;;5001660;28;20030;-89
2021/11/06 13:14:47;;;;;;;13.60;6.10;;;;;;;;;;4958800;28;20027;-90
2021/11/06 13:17:23;;;;;;;11.30;6.10;;;;;;;;;;4965982;28;20061;-88
2021/11/06 13:20:06;;;;;;;12.80;6.38;;;;;;;;;;4987410;28;20036;-88
2021/11/06 13:22:31;;;;;;;14.82;6.68;;;;;;;;;;4977257;28;20034;-88
2021/11/06 13:24:58;;;;;;;14.10;5.75;;;;;;;;;;4976540;28;20380;-88
2021/11/06 13:27:51;;;;;;;15.75;6.63;;;;;;;;;;4995109;28;20061;-89
2021/11/06 13:30:25;;;;;;;11.77;6.05;;;;;;;;;;4997642;28;20033;-89
2021/11/06 13:33:00;;;;;;;12.82;6.57;;;;;;;;;;4998077;28;20030;-89
2021/11/06 13:35:33;;;;;;;12.90;5.85;;;;;;;;;;4996949;28;20084;-89
2021/11/06 13:38:08;;;;;;;;;;;;;;;;;;4981932;28;20022;-89
2021/11/06 13:40:45;;;;;;;11.70;6.80;;;;;;;;;;4997568;28;19922;-88
2021/11/06 13:43:18;;;;;;;13.75;6.35;;;;;;;;;;4980774;28;20054;-89
2021/11/06 13:46:02;;;;;;;14.52;5.57;;;;;;;;;;4980335;28;20050;-89
2021/11/06 13:48:29;;;;;;;10.65;5.63;;;;;;;;;;4981320;28;20443;-88
2021/11/06 13:51:08;;;;;;;11.73;5.95;;;;;;;;;;4981618;28;20031;-90
2021/11/06 13:53:33;;;;;;;14.43;5.72;;;;;;;;;;4985993;28;20054;-90
2021/11/06 13:55:59;;;;;;;10.02;6.22;;;;;;;;;;4979357;28;20482;-90
2021/11/06 13:58:29;;;;;;;10.00;6.03;;;;;;;;;;4977654;28;20038;-90
2021/11/06 14:00:55;;;;;;;10.80;5.78;;;;;;;;;;4991928;28;20026;-90
2021/11/06 14:03:21;;;;;;;9.10;6.18;;;;;;;;;;4989460;28;20033;-91
2021/11/06 14:05:48;;;;;;;12.18;5.22;;;;;;;;;;4997918;28;20022;-90
2021/11/06 14:08:31;;;;;;;11.55;5.13;;;;;;;;;;4997372;28;20026;-90
2021/11/06 14:11:11;;;;;;;15.32;6.30;;;;;;;;;;4997105;28;20034;-90
2021/11/06 14:13:37;;;;;;;9.27;4.30;;;;;;;;;;4997602;28;20410;-90
2021/11/06 14:16:19;;;;;;;9.95;5.18;;;;;;;;;;4997258;28;20545;-90
2021/11/06 14:18:46;;;;;;;9.75;4.63;;;;;;;;;;4981186;28;20034;-90
2021/11/06 14:21:26;;;;;;;11.77;4.63;;;;;;;;;;4983119;28;20551;-89
2021/11/06 14:24:06;;;;;;;10.27;4.50;;;;;;;;;;4996312;28;20026;-89
2021/11/06 14:26:31;;;;;;;12.27;5.22;;;;;;;;;;4982537;28;20033;-90
2021/11/06 14:29:06;;;;;;;9.75;5.00;;;;;;;;;;4977403;28;20031;-90